Time;durP1;ratioP1;P1;durP2;ratioP2;P2;SDS_P1;SDS_P2;PMS_P1;PMS_P2;Temp;Humidity;BMP_temperature;BMP_pressure;BME280_temperature;BME280_humidity;BME280_pressure;Samples;Min_cycle;Max_cycle;Signal;HPM_P1;HPM_P2
2022/02/16 00:00:16;;;;;;;41.30;16.80;;;;;;;2.62;80.36;99913.23;106475;1274;24269;-82
2022/02/16 00:03:04;;;;;;;38.70;16.30;;;;;;;2.63;80.52;99912.73;106411;1274;23190;-80
2022/02/16 00:05:36;;;;;;;35.20;16.00;;;;;;;2.64;80.78;99907.11;106428;1274;22569;-80
2022/02/16 00:08:04;;;;;;;32.40;12.50;;;;;;;2.66;81.08;99909.81;106374;1274;25618;-79
2022/02/16 00:10:34;;;;;;;29.80;14.20;;;;;;;2.72;81.53;99913.20;106465;1274;23452;-79
2022/02/16 00:13:02;;;;;;;32.50;14.50;;;;;;;2.79;81.58;99913.19;106506;1274;25290;-78
2022/02/16 00:15:31;;;;;;;36.30;15.20;;;;;;;2.84;81.71;99910.75;106446;1274;24227;-79
2022/02/16 00:17:59;;;;;;;35.10;17.20;;;;;;;2.91;81.87;99912.83;106445;1274;22560;-77
2022/02/16 00:20:27;;;;;;;33.40;15.10;;;;;;;2.98;81.80;99910.71;106443;1274;24349;-78
2022/02/16 00:22:55;;;;;;;38.10;14.90;;;;;;;3.04;81.96;99911.08;106416;1274;25212;-76
2022/02/16 00:25:24;;;;;;;40.00;16.00;;;;;;;3.10;81.92;99912.33;106330;1274;22795;-77
2022/02/16 00:27:52;;;;;;;34.60;14.20;;;;;;;3.15;81.91;99908.88;106429;1274;22580;-79
2022/02/16 00:30:20;;;;;;;41.40;15.70;;;;;;;3.22;82.01;99913.00;106383;1274;22589;-81
2022/02/16 00:32:48;;;;;;;41.70;16.80;;;;;;;3.28;81.95;99911.73;106391;1274;22616;-76
2022/02/16 00:35:17;;;;;;;37.10;18.10;;;;;;;3.32;82.00;99906.58;106438;1274;22538;-79
2022/02/16 00:37:45;;;;;;;34.60;16.90;;;;;;;3.37;81.92;99917.56;106424;1273;26588;-77
2022/02/16 00:40:14;;;;;;;35.80;15.90;;;;;;;3.42;81.99;99929.14;106461;1274;22698;-79
2022/02/16 00:42:43;;;;;;;38.10;15.80;;;;;;;3.35;81.45;99926.91;106439;1274;22740;-78
2022/02/16 00:45:11;;;;;;;44.00;18.50;;;;;;;3.28;81.41;99924.17;106385;1274;22586;-78
2022/02/16 00:47:40;;;;;;;39.30;16.50;;;;;;;3.25;81.49;99917.64;106365;1274;23336;-78
2022/02/16 00:50:10;;;;;;;39.70;16.90;;;;;;;3.26;81.84;99912.95;106276;1273;24809;-77
2022/02/16 00:52:39;;;;;;;33.60;15.90;;;;;;;3.30;81.92;99912.23;106332;1274;22573;-76
2022/02/16 00:55:09;;;;;;;37.20;16.40;;;;;;;3.33;82.01;99910.97;106419;1274;26096;-80
2022/02/16 00:57:36;;;;;;;;;;;;;;;3.38;82.09;99911.30;106500;1273;22557;-78
2022/02/16 01:00:07;;;;;;;35.70;15.30;;;;;;;3.40;81.92;99910.13;106415;1274;24223;-78
2022/02/16 01:02:35;;;;;;;33.10;15.10;;;;;;;3.41;81.83;99908.94;106497;1273;23112;-78
2022/02/16 01:05:05;;;;;;;33.70;15.50;;;;;;;3.41;81.83;99909.70;106439;1274;23152;-79
2022/02/16 01:07:33;;;;;;;34.70;15.60;;;;;;;3.40;81.77;99916.20;106457;1274;22655;-79
2022/02/16 01:10:02;;;;;;;39.40;16.00;;;;;;;3.37;81.62;99918.64;106430;1273;25392;-78
2022/02/16 01:12:30;;;;;;;32.80;14.90;;;;;;;3.36;81.57;99910.89;106430;1274;22549;-78
2022/02/16 01:14:59;;;;;;;41.20;16.90;;;;;;;3.33;81.40;99909.61;106431;1271;22543;-76
2022/02/16 01:17:27;;;;;;;36.10;14.60;;;;;;;3.30;81.37;99900.07;106469;1273;23786;-78
2022/02/16 01:19:55;;;;;;;31.50;13.10;;;;;;;3.28;81.54;99889.27;106467;1273;22658;-78
2022/02/16 01:22:23;;;;;;;29.60;14.90;;;;;;;3.25;81.79;99881.06;106431;1273;22580;-78
2022/02/16 01:24:52;;;;;;;34.30;15.30;;;;;;;3.25;81.87;99881.30;106406;1274;23403;-79
2022/02/16 01:27:22;;;;;;;37.00;17.40;;;;;;;3.26;82.11;99876.02;106658;1273;22533;-77
2022/02/16 01:29:50;;;;;;;41.80;17.10;;;;;;;3.27;82.03;99881.95;106405;1273;22594;-78
2022/02/16 01:32:19;;;;;;;38.00;16.80;;;;;;;3.27;81.95;99881.80;106347;1273;22678;-77
2022/02/16 01:34:51;;;;;;;35.30;15.20;;;;;;;3.27;81.91;99878.73;106426;1274;25474;-80
2022/02/16 01:37:19;;;;;;;39.00;17.00;;;;;;;3.27;81.94;99874.48;106779;1273;22555;-77
2022/02/16 01:39:47;;;;;;;37.00;17.40;;;;;;;3.27;81.98;99873.77;106311;1273;22695;-77
2022/02/16 01:42:18;;;;;;;33.80;16.40;;;;;;;3.27;81.87;99871.30;106450;1274;24219;-76
2022/02/16 01:44:47;;;;;;;34.30;17.00;;;;;;;3.26;81.82;99868.42;106433;1273;25326;-77
2022/02/16 01:47:15;;;;;;;38.10;16.90;;;;;;;3.27;81.85;99861.71;106494;1273;22569;-78
2022/02/16 01:49:44;;;;;;;37.10;16.30;;;;;;;3.25;81.69;99854.58;106223;1274;22854;-77
2022/02/16 01:52:12;;;;;;;39.00;18.80;;;;;;;3.25;81.69;99852.64;106403;1273;22580;-77
2022/02/16 01:54:40;;;;;;;36.00;17.60;;;;;;;3.24;81.64;99845.64;106576;1273;22578;-80
2022/02/16 01:57:09;;;;;;;40.40;17.60;;;;;;;3.24;81.63;99842.48;106886;1273;25500;-78
2022/02/16 01:59:37;;;;;;;38.80;17.80;;;;;;;3.22;81.57;99837.74;106844;1273;26723;-77
2022/02/16 02:02:07;;;;;;;37.70;17.80;;;;;;;3.20;81.57;99835.45;106559;1273;22483;-77
2022/02/16 02:04:35;;;;;;;42.60;18.00;;;;;;;3.17;81.61;99846.78;106670;1271;22767;-78
2022/02/16 02:07:08;;;;;;;37.70;17.00;;;;;;;3.17;81.52;99844.90;106399;1273;22572;-76
2022/02/16 02:09:38;;;;;;;34.60;15.70;;;;;;;3.15;81.64;99840.39;106441;1273;22592;-77
2022/02/16 02:12:09;;;;;;;33.70;15.50;;;;;;;3.12;81.74;99842.44;106544;1273;22578;-76
2022/02/16 02:14:38;;;;;;;37.30;15.90;;;;;;;3.10;81.75;99833.31;106495;1273;24436;-78
2022/02/16 02:17:12;;;;;;;34.90;16.40;;;;;;;3.07;81.86;99823.59;106440;1273;22576;-80
2022/02/16 02:19:41;;;;;;;34.50;16.00;;;;;;;3.05;81.78;99819.96;106387;1273;22549;-76
2022/02/16 02:22:09;;;;;;;32.60;15.20;;;;;;;3.02;81.85;99820.98;106446;1273;24384;-77
2022/02/16 02:24:39;;;;;;;33.30;15.00;;;;;;;3.00;81.93;99816.01;106438;1273;25417;-78
2022/02/16 02:27:07;;;;;;;31.80;15.40;;;;;;;2.98;82.09;99815.13;106415;1273;22580;-80
2022/02/16 02:29:39;;;;;;;32.20;15.80;;;;;;;2.97;82.08;99815.16;106430;1273;25406;-80
2022/02/16 02:32:08;;;;;;;36.30;15.80;;;;;;;2.95;82.08;99816.79;106421;1273;22548;-78
2022/02/16 02:34:37;;;;;;;36.10;15.10;;;;;;;2.92;82.15;99816.31;106442;1273;24418;-78
2022/02/16 02:37:05;;;;;;;34.90;15.70;;;;;;;2.89;82.20;99811.52;106410;1273;24170;-77
2022/02/16 02:39:36;;;;;;;34.40;15.10;;;;;;;2.87;82.09;99807.80;106412;1273;23336;-78
2022/02/16 02:42:05;;;;;;;33.20;15.10;;;;;;;2.87;82.19;99803.55;106390;1273;22598;-79
2022/02/16 02:44:35;;;;;;;31.70;14.50;;;;;;;2.86;82.48;99802.71;106305;1273;22670;-80
2022/02/16 02:47:07;;;;;;;31.70;14.40;;;;;;;2.86;82.53;99802.80;106305;1273;22620;-78
2022/02/16 02:49:40;;;;;;;36.40;17.10;;;;;;;2.85;82.62;99802.67;106434;1273;25093;-76
2022/02/16 02:52:10;;;;;;;37.30;15.70;;;;;;;2.86;82.56;99800.35;106377;1273;22708;-79
2022/02/16 02:54:39;;;;;;;34.20;14.70;;;;;;;2.85;82.59;99795.66;106469;1273;23088;-78
2022/02/16 02:57:07;;;;;;;29.10;13.50;;;;;;;2.84;82.71;99792.98;106402;1273;28051;-78
2022/02/16 02:59:35;;;;;;;34.20;14.50;;;;;;;2.84;82.73;99788.66;106424;1273;23804;-78
2022/02/16 03:02:05;;;;;;;30.00;14.10;;;;;;;2.85;82.65;99783.45;106577;1273;22584;-78
2022/02/16 03:04:33;;;;;;;26.30;12.10;;;;;;;2.85;82.69;99777.46;106467;1273;22561;-78
2022/02/16 03:07:02;;;;;;;34.50;14.40;;;;;;;2.85;82.60;99770.67;106774;1263;97630;-62
2022/02/16 03:09:31;;;;;;;28.30;12.20;;;;;;;2.86;82.75;99771.20;106379;1271;22582;-63
2022/02/16 03:11:59;;;;;;;29.60;12.00;;;;;;;2.88;82.81;99775.24;106265;1271;24228;-63
2022/02/16 03:14:28;;;;;;;32.90;13.80;;;;;;;2.89;82.84;99780.40;109648;1270;22538;-63
2022/02/16 03:16:56;;;;;;;29.90;13.40;;;;;;;2.90;82.72;99772.42;106205;1270;22581;-62
2022/02/16 03:19:24;;;;;;;30.10;12.40;;;;;;;2.91;82.66;99771.45;106325;1271;22490;-63
2022/02/16 03:21:53;;;;;;;26.40;11.70;;;;;;;2.91;82.65;99769.55;106205;1271;22575;-63
2022/02/16 03:24:22;;;;;;;26.70;11.40;;;;;;;2.90;82.60;99766.44;106295;1271;22707;-63
2022/02/16 03:26:50;;;;;;;26.40;12.00;;;;;;;2.88;82.61;99764.83;106495;1271;25472;-62
2022/02/16 03:29:19;;;;;;;27.20;10.50;;;;;;;2.88;82.50;99766.35;106306;1270;22534;-63
2022/02/16 03:31:47;;;;;;;29.10;12.10;;;;;;;2.87;82.50;99764.48;106295;1270;24261;-63
2022/02/16 03:34:16;;;;;;;27.90;11.40;;;;;;;2.86;82.46;99762.20;106398;1270;22504;-64
2022/02/16 03:36:44;;;;;;;32.00;13.00;;;;;;;2.86;82.44;99768.45;106369;1270;22729;-64
2022/02/16 03:39:13;;;;;;;28.20;11.80;;;;;;;2.86;82.35;99767.83;106364;1271;24236;-62
2022/02/16 03:41:42;;;;;;;28.30;12.80;;;;;;;2.85;82.18;99763.29;106365;1270;24302;-63
2022/02/16 03:44:11;;;;;;;26.10;11.40;;;;;;;2.83;82.18;99759.24;106376;1271;25295;-63
2022/02/16 03:46:40;;;;;;;26.00;11.30;;;;;;;2.81;82.14;99757.26;106367;1271;24613;-63
2022/02/16 03:49:09;;;;;;;26.50;10.30;;;;;;;2.79;82.24;99749.84;106394;1270;22524;-62
2022/02/16 03:51:38;;;;;;;23.80;10.90;;;;;;;2.76;82.13;99744.48;106311;1271;22564;-63
2022/02/16 03:54:06;;;;;;;25.60;10.20;;;;;;;2.75;82.10;99739.71;106336;1271;25633;-63
2022/02/16 03:56:34;;;;;;;25.00;9.40;;;;;;;2.74;82.08;99736.11;106433;1271;23036;-63
2022/02/16 03:59:02;;;;;;;23.10;9.80;;;;;;;2.73;82.09;99733.40;106276;1271;22548;-63
2022/02/16 04:01:31;;;;;;;25.60;8.90;;;;;;;2.72;82.13;99734.91;106292;1270;25258;-62
2022/02/16 04:04:00;;;;;;;21.40;9.40;;;;;;;2.72;81.97;99728.05;106422;1271;23119;-62
2022/02/16 04:06:29;;;;;;;21.90;8.40;;;;;;;2.71;81.97;99726.85;106393;1271;22559;-62
2022/02/16 04:08:58;;;;;;;19.40;8.10;;;;;;;2.70;81.88;99722.05;106423;1270;25922;-62
2022/02/16 04:11:27;;;;;;;21.50;8.80;;;;;;;2.71;81.79;99725.35;106298;1273;26076;-63
2022/02/16 04:13:56;;;;;;;20.60;6.70;;;;;;;2.70;81.66;99717.48;106465;1271;22840;-62
2022/02/16 04:16:25;;;;;;;20.50;8.00;;;;;;;2.70;81.58;99718.13;106323;1271;22666;-63
2022/02/16 04:18:53;;;;;;;22.30;8.40;;;;;;;2.70;81.53;99712.54;106360;1271;22768;-63
2022/02/16 04:21:22;;;;;;;20.80;7.40;;;;;;;2.69;81.43;99705.39;106297;1271;26516;-63
2022/02/16 04:23:50;;;;;;;23.60;7.50;;;;;;;2.69;81.27;99702.63;106367;1270;25428;-63
2022/02/16 04:26:18;;;;;;;19.30;7.30;;;;;;;2.71;81.28;99704.86;106279;1271;23198;-63
2022/02/16 04:28:47;;;;;;;17.60;6.70;;;;;;;2.72;81.28;99704.81;106396;1269;22486;-64
2022/02/16 04:31:15;;;;;;;18.90;6.50;;;;;;;2.73;81.07;99702.50;106239;1270;24277;-63
2022/02/16 04:33:44;;;;;;;19.00;6.90;;;;;;;2.74;81.02;99702.55;106345;1270;24234;-63
2022/02/16 04:36:25;;;;;;;22.10;7.50;;;;;;;2.74;80.93;99698.55;106378;1270;25273;-63
2022/02/16 04:38:54;;;;;;;18.20;6.30;;;;;;;2.73;80.83;99695.67;106374;1270;23496;-63
2022/02/16 04:41:23;;;;;;;18.50;7.50;;;;;;;2.71;80.76;99690.29;106484;1271;25338;-63
2022/02/16 04:43:52;;;;;;;22.30;7.20;;;;;;;2.71;80.80;99692.49;106457;1271;25373;-63
2022/02/16 04:46:21;;;;;;;20.10;6.70;;;;;;;2.71;80.78;99691.39;106531;1270;22557;-64
2022/02/16 04:48:49;;;;;;;20.30;6.50;;;;;;;2.70;80.66;99689.61;106322;1270;24268;-62
2022/02/16 04:51:18;;;;;;;18.10;6.50;;;;;;;2.69;80.67;99690.05;106353;1270;24301;-63
2022/02/16 04:53:46;;;;;;;19.70;6.40;;;;;;;2.68;80.57;99681.89;106448;1270;22552;-63
2022/02/16 04:56:16;;;;;;;21.00;7.60;;;;;;;2.67;80.60;99684.61;106697;1270;24221;-63
2022/02/16 04:58:45;;;;;;;22.60;7.40;;;;;;;2.65;80.50;99677.08;107483;1271;22610;-62
2022/02/16 05:01:16;;;;;;;18.60;6.50;;;;;;;2.64;80.53;99667.52;106390;1271;22562;-63
2022/02/16 05:03:45;;;;;;;17.90;5.60;;;;;;;2.62;80.40;99670.48;106437;1270;22576;-63
2022/02/16 05:06:13;;;;;;;18.70;5.70;;;;;;;2.62;80.51;99668.67;106331;1270;24331;-63
2022/02/16 05:08:41;;;;;;;17.70;5.90;;;;;;;2.63;80.48;99664.79;106387;1270;24380;-62
2022/02/16 05:11:09;;;;;;;22.60;7.00;;;;;;;2.63;80.42;99666.46;106281;1270;22507;-63
2022/02/16 05:13:38;;;;;;;21.40;7.20;;;;;;;2.62;80.35;99658.45;106353;1270;22572;-62
2022/02/16 05:16:06;;;;;;;19.80;6.80;;;;;;;2.62;80.28;99654.13;106350;1270;22570;-63
2022/02/16 05:18:35;;;;;;;17.80;5.60;;;;;;;2.61;80.33;99652.01;106335;1270;24386;-63
2022/02/16 05:23:29;;;;;;;15.70;5.10;;;;;;;2.63;80.31;99651.79;103133;1310;545294;-75
2022/02/16 05:26:01;;;;;;;16.50;5.30;;;;;;;2.61;80.27;99652.25;105956;1281;23625;-74
2022/02/16 05:28:32;;;;;;;21.00;6.40;;;;;;;2.62;80.35;99651.98;106025;1281;25274;-75
2022/02/16 05:31:03;;;;;;;19.70;6.30;;;;;;;2.62;80.38;99654.11;105969;1281;22579;-75
2022/02/16 05:33:36;;;;;;;18.50;5.60;;;;;;;2.62;80.23;99651.44;106010;1281;22592;-75
2022/02/16 05:36:07;;;;;;;18.90;6.70;;;;;;;2.62;80.27;99647.42;107478;1275;184084;-76
2022/02/16 05:38:38;;;;;;;17.30;5.60;;;;;;;2.62;80.14;99641.98;106130;1274;23367;-75
2022/02/16 05:41:09;;;;;;;19.30;5.70;;;;;;;2.62;80.08;99642.70;106087;1274;22563;-74
2022/02/16 05:43:40;;;;;;;20.40;6.00;;;;;;;2.61;80.16;99642.20;106083;1274;22577;-75
2022/02/16 05:46:11;;;;;;;16.70;5.30;;;;;;;2.61;80.05;99641.42;106010;1274;24601;-76
2022/02/16 05:48:42;;;;;;;15.50;5.00;;;;;;;2.60;80.00;99636.38;106025;1274;22706;-75
2022/02/16 05:51:13;;;;;;;18.10;5.10;;;;;;;2.59;80.02;99630.91;106069;1274;22636;-74
2022/02/16 05:53:45;;;;;;;16.00;5.30;;;;;;;2.58;80.04;99623.69;106147;1273;25212;-74
2022/02/16 05:56:16;;;;;;;14.10;4.90;;;;;;;2.57;79.96;99628.19;106206;1274;25335;-76
2022/02/16 05:58:47;;;;;;;15.30;4.40;;;;;;;2.57;80.06;99627.09;106006;1274;25319;-75
2022/02/16 06:01:19;;;;;;;19.10;5.20;;;;;;;2.58;80.03;99623.85;106088;1274;22713;-77
2022/02/16 06:03:50;;;;;;;17.70;5.00;;;;;;;2.58;80.03;99622.99;106339;1274;25690;-79
2022/02/16 06:06:21;;;;;;;16.40;4.70;;;;;;;2.57;79.93;99623.63;106532;1274;22544;-78
2022/02/16 06:08:52;;;;;;;20.60;4.70;;;;;;;2.59;79.93;99618.79;106479;1274;23294;-79
2022/02/16 06:11:23;;;;;;;12.70;3.70;;;;;;;2.60;79.89;99610.38;106574;1274;22567;-79
2022/02/16 06:13:53;;;;;;;14.50;3.50;;;;;;;2.62;79.97;99605.06;107017;1274;24256;-79
2022/02/16 06:16:25;;;;;;;21.60;4.00;;;;;;;2.65;79.92;99605.42;107407;1271;22638;-79
2022/02/16 06:18:56;;;;;;;11.40;3.20;;;;;;;2.67;79.79;99601.77;106775;1271;24224;-76
2022/02/16 06:21:27;;;;;;;11.80;3.60;;;;;;;2.70;79.82;99604.59;106641;1271;25258;-78
2022/02/16 06:23:57;;;;;;;9.70;2.80;;;;;;;2.73;79.75;99604.23;106716;1271;26568;-78
2022/02/16 06:26:29;;;;;;;11.30;3.20;;;;;;;2.77;79.69;99598.68;107081;1268;22689;-77
2022/02/16 06:29:00;;;;;;;12.30;2.90;;;;;;;2.80;79.64;99593.38;106940;1268;22531;-78
2022/02/16 06:31:32;;;;;;;9.90;2.80;;;;;;;2.85;79.66;99592.30;106964;1268;22711;-77
2022/02/16 06:34:10;;;;;;;11.30;2.90;;;;;;;2.89;79.60;99589.95;106963;1267;22688;-77
2022/02/16 06:36:45;;;;;;;11.70;2.70;;;;;;;2.93;79.57;99590.59;106952;1268;23894;-78
2022/02/16 06:39:16;;;;;;;16.90;2.90;;;;;;;2.98;79.48;99591.23;107172;1268;22557;-79
2022/02/16 06:41:47;;;;;;;13.60;2.90;;;;;;;3.04;79.45;99586.99;106981;1268;25270;-78
2022/02/16 06:44:18;;;;;;;9.60;2.40;;;;;;;3.11;79.39;99590.02;106972;1266;23077;-79
2022/02/16 06:46:49;;;;;;;16.10;3.50;;;;;;;3.18;79.33;99591.26;106943;1268;22565;-79
2022/02/16 06:49:20;;;;;;;8.70;2.10;;;;;;;3.25;79.25;99588.51;106947;1268;24297;-77
2022/02/16 06:51:51;;;;;;;12.60;2.70;;;;;;;3.33;79.23;99581.47;106924;1268;24349;-77
2022/02/16 06:54:22;;;;;;;11.80;2.90;;;;;;;3.40;79.23;99573.69;106670;1268;25436;-78
2022/02/16 06:56:53;;;;;;;12.50;2.20;;;;;;;3.45;79.02;99575.14;106565;1267;22626;-77
2022/02/16 06:59:24;;;;;;;12.00;2.00;;;;;;;3.52;78.88;99569.46;106708;1268;22612;-78
2022/02/16 07:01:55;;;;;;;10.30;2.40;;;;;;;3.60;78.64;99562.48;106716;1268;25289;-77
2022/02/16 07:04:27;;;;;;;10.30;1.70;;;;;;;3.72;78.54;99556.08;106641;1266;23050;-77
2022/02/16 07:06:58;;;;;;;15.30;2.90;;;;;;;3.82;78.32;99557.27;106642;1268;23111;-77
2022/02/16 07:09:29;;;;;;;13.00;2.30;;;;;;;3.92;78.13;99549.46;106647;1268;22632;-77
2022/02/16 07:12:00;;;;;;;10.00;1.90;;;;;;;4.03;78.03;99548.58;106652;1268;22718;-77
2022/02/16 07:14:31;;;;;;;8.30;1.80;;;;;;;4.11;77.85;99541.28;106583;1268;24302;-77
2022/02/16 07:17:08;;;;;;;7.30;1.60;;;;;;;4.20;77.59;99540.01;106609;1268;22544;-77
2022/02/16 07:19:40;;;;;;;11.50;1.80;;;;;;;4.29;77.45;99541.47;106628;1268;22733;-77
2022/02/16 07:22:11;;;;;;;9.40;2.00;;;;;;;4.37;77.27;99536.77;106793;1268;25316;-77
2022/02/16 07:24:42;;;;;;;8.60;1.50;;;;;;;4.46;77.16;99533.20;106634;1266;22550;-77
2022/02/16 07:27:14;;;;;;;5.00;1.30;;;;;;;4.52;77.08;99525.95;106727;1268;25308;-76
2022/02/16 07:29:45;;;;;;;9.30;1.80;;;;;;;4.58;76.99;99529.09;106712;1268;22684;-78
2022/02/16 07:32:16;;;;;;;9.50;1.60;;;;;;;4.63;76.90;99526.62;106704;1268;26433;-78
2022/02/16 07:34:48;;;;;;;10.30;1.70;;;;;;;4.69;76.66;99529.04;106710;1268;22612;-77
2022/02/16 07:37:21;;;;;;;9.70;1.60;;;;;;;4.76;76.55;99530.02;106894;1267;22908;-77
2022/02/16 07:39:51;;;;;;;10.40;1.70;;;;;;;4.83;76.60;99527.52;106746;1267;22619;-77
2022/02/16 07:42:22;;;;;;;10.20;1.80;;;;;;;4.91;76.42;99527.69;106844;1267;22627;-77
2022/02/16 07:44:53;;;;;;;11.90;2.20;;;;;;;4.96;76.41;99526.10;106702;1267;25336;-77
2022/02/16 07:47:25;;;;;;;11.70;2.00;;;;;;;5.02;76.35;99526.17;106906;1268;25388;-77
2022/02/16 07:49:56;;;;;;;9.90;1.70;;;;;;;5.10;76.15;99520.65;106798;1268;25614;-76
2022/02/16 07:52:27;;;;;;;11.00;1.60;;;;;;;5.17;76.05;99520.74;106908;1267;22657;-77
2022/02/16 07:54:58;;;;;;;8.10;1.50;;;;;;;5.24;76.15;99523.74;106770;1268;25445;-78
2022/02/16 07:57:30;;;;;;;6.90;1.50;;;;;;;5.31;75.56;99516.89;106605;1267;22538;-77
2022/02/16 08:00:02;;;;;;;12.50;2.20;;;;;;;5.39;75.82;99517.91;106722;1268;25537;-77
2022/02/16 08:02:33;;;;;;;12.50;2.10;;;;;;;5.45;75.98;99516.91;106957;1268;22615;-77
2022/02/16 08:05:05;;;;;;;6.90;1.40;;;;;;;5.50;75.84;99518.89;106859;1268;26432;-77
2022/02/16 08:07:37;;;;;;;10.20;1.70;;;;;;;5.57;75.87;99512.11;106808;1268;24312;-77
2022/02/16 08:10:10;;;;;;;9.40;1.70;;;;;;;5.65;75.68;99509.86;106919;1266;26350;-77
2022/02/16 08:12:56;;;;;;;6.40;1.40;;;;;;;5.73;75.47;99500.31;107563;1267;25327;-77
2022/02/16 08:15:29;;;;;;;11.80;1.80;;;;;;;5.82;75.05;99496.44;106943;1268;23365;-77
2022/02/16 08:18:00;;;;;;;10.80;1.80;;;;;;;5.90;75.16;99491.91;106703;1268;22576;-77
2022/02/16 08:20:31;;;;;;;7.00;1.30;;;;;;;5.98;74.68;99487.41;106885;1267;22544;-77
2022/02/16 08:23:04;;;;;;;6.30;1.20;;;;;;;6.04;74.28;99483.55;106956;1267;25643;-77
2022/02/16 08:25:35;;;;;;;7.70;1.10;;;;;;;6.11;74.28;99475.81;107010;1268;22631;-77
2022/02/16 08:28:07;;;;;;;6.60;1.00;;;;;;;6.18;73.93;99475.31;106925;1268;22553;-77
2022/02/16 08:30:38;;;;;;;7.80;1.60;;;;;;;6.25;73.94;99467.48;106964;1268;23934;-78
2022/02/16 08:33:13;;;;;;;7.60;1.30;;;;;;;6.33;73.86;99465.91;106971;1268;22754;-77
2022/02/16 08:35:45;;;;;;;7.30;1.50;;;;;;;6.40;73.79;99462.93;107042;1267;22619;-76
2022/02/16 08:38:16;;;;;;;6.90;1.40;;;;;;;6.47;73.15;99455.91;106811;1268;25659;-77
2022/02/16 08:40:47;;;;;;;5.80;0.90;;;;;;;6.55;73.17;99449.36;107008;1268;25630;-77
2022/02/16 08:43:19;;;;;;;7.30;1.30;;;;;;;6.62;72.71;99439.24;106875;1268;25464;-77
2022/02/16 08:45:51;;;;;;;7.90;1.40;;;;;;;6.69;72.84;99436.77;106760;1268;25365;-77
2022/02/16 08:48:23;;;;;;;4.90;0.90;;;;;;;6.76;72.91;99432.40;106658;1267;22751;-76
2022/02/16 08:50:56;;;;;;;5.40;1.00;;;;;;;6.84;72.74;99430.73;106840;1267;22566;-77
2022/02/16 08:53:29;;;;;;;3.90;0.70;;;;;;;6.91;72.40;99432.48;107196;1267;22696;-80
2022/02/16 08:56:01;;;;;;;4.30;0.80;;;;;;;6.97;71.93;99429.48;107935;1268;22543;-78
2022/02/16 08:58:33;;;;;;;7.20;1.10;;;;;;;7.01;71.45;99426.09;107134;1268;26547;-77
2022/02/16 09:01:11;;;;;;;4.40;0.80;;;;;;;7.06;71.47;99416.00;107231;1267;25263;-77
2022/02/16 09:03:44;;;;;;;6.80;0.80;;;;;;;7.10;71.19;99410.27;107165;1268;22550;-77
2022/02/16 09:06:22;;;;;;;5.20;1.00;;;;;;;7.13;71.12;99401.05;107005;1266;22525;-77
2022/02/16 09:08:56;;;;;;;5.80;0.80;;;;;;;7.16;70.52;99393.06;107027;1268;25376;-77
2022/02/16 09:11:32;;;;;;;5.70;0.80;;;;;;;7.16;70.28;99385.72;107194;1268;26274;-77
2022/02/16 09:14:04;;;;;;;8.10;0.80;;;;;;;7.17;70.05;99380.70;106780;1267;22524;-77
2022/02/16 09:16:36;;;;;;;3.80;0.80;;;;;;;7.20;70.61;99375.84;106730;1268;25532;-77
2022/02/16 09:19:09;;;;;;;6.20;0.80;;;;;;;7.27;70.14;99371.59;106834;1268;24418;-79
2022/02/16 09:21:41;;;;;;;6.70;1.40;;;;;;;7.33;70.05;99372.09;107130;1268;22620;-77
2022/02/16 09:24:13;;;;;;;4.80;0.90;;;;;;;7.38;70.30;99365.47;106965;1268;25275;-77
2022/02/16 09:26:50;;;;;;;6.50;0.90;;;;;;;7.43;70.38;99363.77;107163;1266;26529;-76
2022/02/16 09:29:24;;;;;;;4.30;0.80;;;;;;;7.46;70.11;99359.81;106800;1268;22531;-77
2022/02/16 09:31:57;;;;;;;6.40;0.90;;;;;;;7.49;69.55;99352.92;107153;1267;22733;-77
2022/02/16 09:34:30;;;;;;;5.20;1.20;;;;;;;7.49;69.56;99352.42;106871;1267;23084;-77
2022/02/16 09:37:03;;;;;;;5.70;1.10;;;;;;;7.49;70.07;99350.09;106994;1268;22548;-77
2022/02/16 09:39:36;;;;;;;5.30;1.10;;;;;;;7.49;69.88;99352.42;107359;1268;24250;-77
2022/02/16 09:42:09;;;;;;;6.50;1.20;;;;;;;7.47;69.25;99349.42;107117;1268;22689;-77
2022/02/16 09:45:01;;;;;;;4.30;1.10;;;;;;;7.45;69.10;99347.35;107711;1268;24278;-77
2022/02/16 09:47:40;;;;;;;5.30;1.00;;;;;;;7.41;68.95;99339.70;107857;1268;24390;-81
2022/02/16 09:50:16;;;;;;;3.90;0.90;;;;;;;7.38;68.56;99336.63;107576;1268;22545;-80
2022/02/16 09:52:49;;;;;;;6.10;1.10;;;;;;;7.35;68.52;99337.65;108654;1267;22492;-81
2022/02/16 09:55:21;;;;;;;5.60;1.00;;;;;;;7.33;68.24;99337.77;107953;1268;24347;-79
2022/02/16 09:57:54;;;;;;;9.10;1.30;;;;;;;7.34;68.23;99328.48;107851;1268;22604;-80
2022/02/16 10:00:26;;;;;;;4.20;0.90;;;;;;;7.35;68.40;99330.88;108190;1266;22581;-81
2022/02/16 10:02:57;;;;;;;9.20;1.30;;;;;;;7.37;68.68;99330.91;108221;1268;22553;-80
2022/02/16 10:05:37;;;;;;;9.40;1.60;;;;;;;7.40;68.43;99323.59;108338;1267;22685;-80
2022/02/16 10:08:08;;;;;;;6.80;1.00;;;;;;;7.38;68.10;99312.15;108356;1267;22497;-80
2022/02/16 10:10:40;;;;;;;5.30;1.30;;;;;;;7.38;68.10;99301.70;108080;1268;23797;-79
2022/02/16 10:13:23;;;;;;;8.10;1.10;;;;;;;7.37;68.26;99291.73;107419;1266;22592;-80
2022/02/16 10:15:55;;;;;;;6.60;1.00;;;;;;;7.38;68.10;99282.91;107984;1266;22574;-80
2022/02/16 10:18:27;;;;;;;6.00;1.20;;;;;;;7.39;67.83;99275.92;107383;1268;26503;-79
2022/02/16 10:21:10;;;;;;;5.80;1.10;;;;;;;7.43;67.80;99268.51;107495;1258;23926;-73
2022/02/16 10:23:48;;;;;;;8.20;1.30;;;;;;;7.48;67.99;99263.75;106539;1268;23334;-73
2022/02/16 10:26:19;;;;;;;5.60;0.90;;;;;;;7.55;67.85;99256.29;106602;1267;22605;-74
2022/02/16 10:28:58;;;;;;;4.00;0.90;;;;;;;7.61;67.44;99247.89;106602;1268;24364;-72
2022/02/16 10:31:40;;;;;;;6.70;1.40;;;;;;;7.65;67.18;99243.20;106609;1268;24429;-73
2022/02/16 10:34:11;;;;;;;7.30;1.30;;;;;;;7.70;67.57;99241.09;106590;1268;22504;-73
2022/02/16 10:36:46;;;;;;;5.90;0.90;;;;;;;7.76;67.47;99242.75;106695;1268;22553;-73
2022/02/16 10:39:23;;;;;;;7.70;1.40;;;;;;;7.81;67.38;99241.86;106724;1268;25417;-74
2022/02/16 10:41:58;;;;;;;6.90;1.00;;;;;;;7.86;67.23;99240.41;106925;1268;22544;-74
2022/02/16 10:44:34;;;;;;;9.60;1.50;;;;;;;7.89;66.98;99239.89;106992;1268;22554;-74
2022/02/16 10:47:10;;;;;;;9.30;1.20;;;;;;;7.92;67.02;99235.65;106930;1268;22735;-74
2022/02/16 10:49:43;;;;;;;4.40;1.00;;;;;;;7.99;67.08;99225.08;106779;1268;22537;-74
2022/02/16 10:52:17;;;;;;;4.50;0.90;;;;;;;8.04;66.88;99227.10;106658;1268;23110;-76
2022/02/16 10:54:58;;;;;;;5.90;0.80;;;;;;;8.06;66.57;99228.04;106789;1268;22554;-73
2022/02/16 10:57:30;;;;;;;7.00;1.00;;;;;;;8.05;66.40;99227.58;106578;1268;22631;-75
2022/02/16 11:00:02;;;;;;;6.90;1.10;;;;;;;8.06;66.68;99224.97;106681;1268;22695;-74
2022/02/16 11:02:35;;;;;;;5.40;0.90;;;;;;;8.08;66.50;99219.63;106711;1268;22547;-74
2022/02/16 11:05:09;;;;;;;7.60;1.30;;;;;;;8.09;66.44;99220.20;106711;1268;24561;-73
2022/02/16 11:07:41;;;;;;;5.10;1.10;;;;;;;8.10;66.29;99213.80;106830;1268;24305;-74
2022/02/16 11:10:13;;;;;;;6.60;1.20;;;;;;;8.10;66.07;99207.46;106674;1268;22542;-76
2022/02/16 11:12:45;;;;;;;10.50;1.20;;;;;;;8.09;66.47;99202.45;106642;1268;22791;-76
2022/02/16 11:15:16;;;;;;;5.20;1.00;;;;;;;8.08;66.56;99193.30;106643;1267;25314;-73
2022/02/16 11:17:48;;;;;;;8.60;1.20;;;;;;;8.07;66.34;99187.98;106583;1268;22577;-74
2022/02/16 11:20:25;;;;;;;5.50;1.30;;;;;;;8.06;66.22;99183.93;106714;1268;25500;-73
2022/02/16 11:23:00;;;;;;;9.00;1.50;;;;;;;8.07;66.62;99181.45;107143;1267;22733;-74
2022/02/16 11:25:36;;;;;;;4.20;1.20;;;;;;;8.08;66.42;99183.96;106868;1268;23103;-76
2022/02/16 11:28:12;;;;;;;5.70;1.00;;;;;;;8.09;66.38;99174.85;107001;1268;25361;-75
2022/02/16 11:30:46;;;;;;;7.40;1.20;;;;;;;8.10;66.46;99168.46;106961;1268;25243;-75
2022/02/16 11:33:22;;;;;;;4.50;1.00;;;;;;;8.12;66.37;99168.13;107083;1268;24874;-75
2022/02/16 11:35:57;;;;;;;5.20;1.10;;;;;;;8.13;66.08;99161.46;106928;1268;25332;-76
2022/02/16 11:38:45;;;;;;;8.20;1.10;;;;;;;8.14;66.20;99157.08;107270;1268;22714;-75
2022/02/16 11:41:25;;;;;;;9.60;1.30;;;;;;;8.17;66.11;99151.55;106914;1268;25417;-76
2022/02/16 11:44:00;;;;;;;11.40;1.40;;;;;;;8.18;65.99;99142.38;106879;1267;24229;-76
2022/02/16 11:46:44;;;;;;;5.40;1.20;;;;;;;8.19;65.79;99134.39;106903;1267;24335;-75